RJBM(METAR)
12/04 19:00
METAR RJBM 041000Z VRB02KT 9999 FEW025 SCT045 BKN170 09/07 Q1024 RMK
2CU025 4SC045 7AC170 A3025=
戻る
トップページへ戻る
IMOC Co,.Ltd.